Time;durP1;ratioP1;P1;durP2;ratioP2;P2;SDS_P1;SDS_P2;PMS_P1;PMS_P2;Temp;Humidity;BMP_temperature;BMP_pressure;BME280_temperature;BME280_humidity;BME280_pressure;Samples;Min_cycle;Max_cycle;Signal;HPM_P1;HPM_P2
2023/01/04 00:01:21;;;;;;;0.93;0.93;;;;;;;5.26;100.00;101408.31;5041227;28;20447;-53
2023/01/04 00:03:47;;;;;;;2.67;1.57;;;;;;;5.29;100.00;101405.72;5042193;28;20859;-53
2023/01/04 00:06:15;;;;;;;1.07;1.07;;;;;;;5.25;100.00;101416.22;5047794;28;20530;-52
2023/01/04 00:08:42;;;;;;;3.03;1.23;;;;;;;5.52;100.00;101402.44;5046563;28;20937;-52
2023/01/04 00:11:20;;;;;;;1.40;1.30;;;;;;;5.42;100.00;101400.56;5040480;28;21068;-53
2023/01/04 00:13:49;;;;;;;0.67;0.67;;;;;;;5.56;100.00;101401.59;5040816;28;20447;-53
2023/01/04 00:16:20;;;;;;;0.70;0.60;;;;;;;5.68;100.00;101400.81;5046276;28;20494;-52
2023/01/04 00:18:48;;;;;;;1.00;1.00;;;;;;;5.85;100.00;101399.22;5047180;28;20549;-53
2023/01/04 00:21:21;;;;;;;1.57;1.47;;;;;;;5.76;100.00;101404.44;5042961;28;20524;-52
2023/01/04 00:23:50;;;;;;;0.87;0.83;;;;;;;5.98;100.00;101402.88;5024104;28;20451;-52
2023/01/04 00:26:24;;;;;;;3.63;1.30;;;;;;;5.98;100.00;101392.31;5044516;28;20447;-53
2023/01/04 00:28:57;;;;;;;1.63;1.47;;;;;;;6.12;100.00;101395.94;5040303;28;20473;-53
2023/01/04 00:31:25;;;;;;;1.67;1.57;;;;;;;6.08;100.00;101394.16;5041266;28;20450;-53
2023/01/04 00:33:56;;;;;;;2.20;1.00;;;;;;;6.06;100.00;101385.34;5046722;28;20447;-53
2023/01/04 00:36:23;;;;;;;2.63;1.47;;;;;;;6.10;100.00;101382.75;5046900;28;20487;-53
2023/01/04 00:39:09;;;;;;;0.70;0.70;;;;;;;6.13;100.00;101381.88;5040741;28;20467;-53
2023/01/04 00:41:36;;;;;;;2.00;1.90;;;;;;;6.20;100.00;101373.16;5039960;28;20458;-53
2023/01/04 00:44:23;;;;;;;0.80;0.60;;;;;;;6.29;100.00;101367.03;5041106;28;20466;-53
2023/01/04 00:46:49;;;;;;;2.30;2.10;;;;;;;6.36;100.00;101359.16;5046614;28;20462;-53
2023/01/04 00:49:16;;;;;;;2.90;1.23;;;;;;;6.35;100.00;101359.16;5046340;28;20477;-53
2023/01/04 00:51:42;;;;;;;5.53;1.03;;;;;;;6.42;100.00;101363.56;5039904;28;20455;-52
2023/01/04 00:54:12;;;;;;;1.13;1.00;;;;;;;6.46;100.00;101357.47;5046936;28;20447;-52
2023/01/04 00:56:39;;;;;;;1.00;0.90;;;;;;;6.41;100.00;101346.84;5046328;28;20586;-53
2023/01/04 00:59:05;;;;;;;1.20;1.20;;;;;;;6.54;100.00;101353.97;5028278;28;20475;-53
2023/01/04 01:01:33;;;;;;;4.60;1.47;;;;;;;6.71;100.00;101355.78;5045397;28;20457;-52
2023/01/04 01:04:02;;;;;;;1.50;0.90;;;;;;;6.76;100.00;101360.25;5048496;28;20539;-53
2023/01/04 01:06:30;;;;;;;0.50;0.40;;;;;;;6.83;100.00;101364.66;5039142;28;20452;-53
2023/01/04 01:08:57;;;;;;;0.80;0.80;;;;;;;6.83;100.00;101358.50;5043785;28;20475;-51
2023/01/04 01:11:24;;;;;;;1.57;1.47;;;;;;;6.80;100.00;101356.72;5043949;28;20526;-52
2023/01/04 01:13:51;;;;;;;1.43;1.33;;;;;;;6.84;100.00;101353.22;5039553;28;20450;-53
2023/01/04 01:16:21;;;;;;;0.60;0.60;;;;;;;7.06;100.00;101350.66;5050033;28;20520;-54
2023/01/04 01:19:07;;;;;;;0.80;0.80;;;;;;;6.80;100.00;101340.88;5028781;28;20510;-53
2023/01/04 01:21:34;;;;;;;1.17;1.07;;;;;;;6.92;100.00;101329.47;5039107;28;20452;-53
2023/01/04 01:24:00;;;;;;;9.93;2.13;;;;;;;7.11;100.00;101331.28;5044810;28;20448;-52
2023/01/04 01:26:27;;;;;;;4.10;1.13;;;;;;;7.11;100.00;101333.03;5045889;28;20457;-52
2023/01/04 01:28:53;;;;;;;0.40;0.40;;;;;;;7.01;100.00;101332.16;5040985;28;20789;-52
2023/01/04 01:31:25;;;;;;;1.00;0.97;;;;;;;6.96;100.00;101328.59;5039559;28;20456;-53
2023/01/04 01:33:54;;;;;;;0.60;0.53;;;;;;;7.18;100.00;101337.47;5043590;28;20447;-52
2023/01/04 01:36:22;;;;;;;1.30;1.20;;;;;;;7.13;100.00;101334.81;5039453;28;20514;-52
2023/01/04 01:38:49;;;;;;;0.80;0.40;;;;;;;7.16;100.00;101326.00;5024333;28;20515;-53
2023/01/04 01:41:28;;;;;;;1.37;1.27;;;;;;;7.12;100.00;101333.03;5045839;28;20447;-53
2023/01/04 01:43:56;;;;;;;1.07;0.93;;;;;;;7.16;100.00;101322.50;5043826;28;20478;-53
2023/01/04 01:46:28;;;;;;;1.13;1.03;;;;;;;6.95;100.00;101316.25;5038896;28;20446;-53
2023/01/04 01:48:59;;;;;;;1.50;1.40;;;;;;;7.06;100.00;101308.34;5039468;28;20464;-52
2023/01/04 01:51:27;;;;;;;0.70;0.70;;;;;;;7.19;100.00;101318.06;5026571;28;20446;-52
2023/01/04 01:54:00;;;;;;;1.43;1.00;;;;;;;7.27;100.00;101311.06;5039101;28;20462;-53
2023/01/04 01:56:30;;;;;;;0.50;0.40;;;;;;;7.33;100.00;101305.75;5044057;28;20496;-52
2023/01/04 01:58:58;;;;;;;1.13;1.03;;;;;;;7.40;100.00;101307.53;5041494;28;21283;-53
2023/01/04 02:01:25;;;;;;;0.90;0.90;;;;;;;7.24;100.00;101305.72;5045526;28;21025;-53
2023/01/04 02:03:52;;;;;;;1.43;0.97;;;;;;;7.30;100.00;101304.88;5044226;28;20458;-53
2023/01/04 02:06:30;;;;;;;1.00;1.00;;;;;;;7.24;100.00;101303.09;5034780;28;20490;-52
2023/01/04 02:08:56;;;;;;;0.80;0.80;;;;;;;7.18;100.00;101300.44;5039220;28;20462;-52
2023/01/04 02:11:23;;;;;;;0.40;0.40;;;;;;;7.37;100.00;101312.81;5039609;28;20451;-53
2023/01/04 02:17:06;;;;;;;0.90;0.80;;;;;;;7.40;100.00;101286.38;5041995;28;21063;-53
2023/01/04 02:19:48;;;;;;;2.63;0.60;;;;;;;7.54;100.00;101289.03;5027768;28;20466;-51
2023/01/04 02:22:20;;;;;;;2.13;0.57;;;;;;;7.44;100.00;101274.03;5038647;28;20445;-53
2023/01/04 02:24:55;;;;;;;0.57;0.50;;;;;;;7.36;100.00;101271.38;5041274;28;20494;-52
2023/01/04 02:27:45;;;;;;;0.63;0.50;;;;;;;7.42;100.00;101271.38;5045698;28;20562;-52
2023/01/04 02:30:36;;;;;;;1.27;1.17;;;;;;;7.46;100.00;101256.38;5045275;28;20471;-51
2023/01/04 02:33:14;;;;;;;1.70;1.13;;;;;;;7.57;100.00;101251.97;5038546;28;20467;-53
2023/01/04 02:36:01;;;;;;;1.07;0.90;;;;;;;7.35;100.00;101256.38;5044674;28;20893;-53
2023/01/04 02:38:38;;;;;;;0.77;0.60;;;;;;;7.31;100.00;101259.91;5020040;28;20450;-52
2023/01/04 02:41:33;;;;;;;1.07;0.50;;;;;;;7.43;100.00;101259.94;5043670;28;20442;-52
2023/01/04 02:47:08;;;;;;;1.70;1.60;;;;;;;7.48;100.00;101244.03;5038401;28;20454;-52
2023/01/04 02:52:29;;;;;;;0.40;0.40;;;;;;;7.43;100.00;101243.19;5040486;28;20825;-53
2023/01/04 02:54:57;;;;;;;1.83;1.47;;;;;;;7.45;100.00;101236.13;5044966;28;20857;-52
2023/01/04 02:57:49;;;;;;;0.37;0.30;;;;;;;7.49;100.00;101231.69;5046273;28;20489;-52
2023/01/04 03:06:14;;;;;;;1.60;1.50;;;;;;;7.43;100.00;101222.00;5042225;28;20505;-51
2023/01/04 03:06:31;;;;;;;0.40;0.40;;;;;;;7.45;100.00;101220.25;5043202;28;20905;-53
2023/01/04 03:09:05;;;;;;;3.33;1.10;;;;;;;7.46;100.00;101218.47;5030175;28;20564;-52
2023/01/04 03:14:32;;;;;;;1.20;1.00;;;;;;;7.49;100.00;101211.41;5043221;28;20447;-53
2023/01/04 03:17:09;;;;;;;1.50;1.40;;;;;;;7.55;100.00;101210.53;5042487;28;20494;-51
2023/01/04 03:19:53;;;;;;;0.50;0.40;;;;;;;7.52;100.00;101199.94;5041595;28;20491;-53
2023/01/04 03:36:39;;;;;;;1.63;1.13;;;;;;;7.82;100.00;101189.31;5041451;28;20486;-53
2023/01/04 03:48:30;;;;;;;1.20;1.10;;;;;;;7.69;100.00;101148.78;5043403;28;20450;-52
2023/01/04 03:51:06;;;;;;;1.20;1.10;;;;;;;7.79;100.00;101152.25;5041237;28;20449;-52
2023/01/04 03:53:40;;;;;;;2.37;1.47;;;;;;;7.67;100.00;101157.56;5040883;28;20854;-52
2023/01/04 03:56:09;;;;;;;1.73;1.33;;;;;;;7.75;100.00;101149.63;5046507;28;20499;-52
2023/01/04 03:58:36;;;;;;;0.83;0.73;;;;;;;7.71;100.00;101148.75;5049204;28;20480;-52
2023/01/04 04:01:04;;;;;;;2.63;0.80;;;;;;;7.82;100.00;101141.69;5045969;28;20444;-53
2023/01/04 04:09:02;;;;;;;8.47;1.50;;;;;;;7.89;100.00;101132.81;5029263;28;20968;-53
2023/01/04 04:11:32;;;;;;;3.67;1.33;;;;;;;7.76;100.00;101128.44;5040929;28;20452;-52
2023/01/04 04:13:59;;;;;;;3.30;1.93;;;;;;;7.71;100.00;101136.41;5045793;28;20946;-52
2023/01/04 04:16:25;;;;;;;1.00;0.90;;;;;;;7.91;100.00;101132.81;5045998;28;21023;-53
2023/01/04 04:18:52;;;;;;;1.50;1.40;;;;;;;7.97;100.00;101130.16;5042487;28;20470;-52
2023/01/04 04:21:19;;;;;;;0.73;0.73;;;;;;;7.92;100.00;101130.16;5040454;28;20492;-51
2023/01/04 04:23:45;;;;;;;1.20;0.80;;;;;;;7.86;100.00;101121.38;5045462;28;20491;-53
2023/01/04 04:26:12;;;;;;;0.60;0.50;;;;;;;8.15;100.00;101118.56;5047356;28;20471;-52
2023/01/04 04:28:38;;;;;;;2.63;0.47;;;;;;;8.16;100.00;101102.69;5042565;28;20458;-53
2023/01/04 04:31:05;;;;;;;1.87;0.80;;;;;;;8.04;100.00;101121.28;5038188;28;20454;-51
2023/01/04 04:33:31;;;;;;;20.97;0.87;;;;;;;8.22;100.00;101115.91;5043025;28;20451;-52
2023/01/04 04:35:58;;;;;;;1.20;1.10;;;;;;;8.20;100.00;101109.69;5040376;28;20470;-52
2023/01/04 04:38:24;;;;;;;0.73;0.73;;;;;;;8.21;100.00;101108.81;5031356;28;20535;-52
2023/01/04 04:43:35;;;;;;;1.60;0.53;;;;;;;8.24;100.00;101106.16;5045398;28;20450;-52
2023/01/04 04:46:02;;;;;;;1.00;0.73;;;;;;;8.38;100.00;101106.13;5040172;28;20458;-52
2023/01/04 04:48:29;;;;;;;8.60;1.43;;;;;;;8.35;100.00;101100.81;5041912;28;20448;-53
2023/01/04 04:50:55;;;;;;;4.73;1.00;;;;;;;8.44;100.00;101105.19;5046943;28;20476;-51
2023/01/04 04:53:22;;;;;;;0.50;0.40;;;;;;;8.31;100.00;101099.06;5045209;28;20634;-53
2023/01/04 04:55:52;;;;;;;2.10;2.00;;;;;;;8.47;100.00;101089.25;5039509;28;20474;-52
2023/01/04 04:58:20;;;;;;;1.10;1.00;;;;;;;8.29;100.00;101100.84;5041257;28;20447;-52
2023/01/04 05:00:46;;;;;;;6.30;1.90;;;;;;;8.33;100.00;101094.63;5033328;28;20468;-52
2023/01/04 05:03:12;;;;;;;15.83;2.83;;;;;;;8.30;100.00;101092.88;5033550;28;20484;-53
2023/01/04 05:05:39;;;;;;;0.87;0.87;;;;;;;8.49;100.00;101077.75;5046224;28;20818;-53
2023/01/04 05:08:06;;;;;;;0.60;0.50;;;;;;;8.33;100.00;101081.38;5046479;28;20455;-53
2023/01/04 05:10:32;;;;;;;1.50;0.93;;;;;;;8.41;100.00;101074.31;5026768;28;21002;-52
2023/01/04 05:12:59;;;;;;;2.03;0.70;;;;;;;8.42;100.00;101072.53;5039460;28;20455;-51
2023/01/04 05:15:27;;;;;;;0.40;0.40;;;;;;;8.45;100.00;101068.09;5045950;28;20961;-52
2023/01/04 05:17:54;;;;;;;1.37;1.27;;;;;;;8.50;100.00;101061.00;5046194;28;21027;-53
2023/01/04 05:20:21;;;;;;;0.70;0.67;;;;;;;8.43;100.00;101063.69;5039536;28;20470;-53
2023/01/04 05:22:47;;;;;;;0.83;0.83;;;;;;;8.46;100.00;101061.88;5039409;28;20448;-52
2023/01/04 05:25:14;;;;;;;1.33;1.23;;;;;;;8.46;100.00;101050.41;5045298;28;20546;-52
2023/01/04 05:27:40;;;;;;;5.90;1.17;;;;;;;8.50;100.00;101055.69;5046254;28;20558;-53
2023/01/04 05:32:55;;;;;;;1.03;0.93;;;;;;;8.65;100.00;101053.81;5039133;28;20449;-52
2023/01/04 05:35:22;;;;;;;0.80;0.80;;;;;;;8.48;100.00;101049.50;5042164;28;20447;-54
2023/01/04 05:37:48;;;;;;;11.43;2.87;;;;;;;8.51;100.00;101060.09;5032714;28;20495;-53
2023/01/04 05:40:15;;;;;;;1.13;1.03;;;;;;;8.47;100.00;101052.19;5043738;28;20898;-53
2023/01/04 05:42:42;;;;;;;1.00;0.83;;;;;;;8.51;100.00;101059.22;5039060;28;20550;-53
2023/01/04 05:45:09;;;;;;;0.90;0.90;;;;;;;8.58;100.00;101051.19;5041248;28;20535;-52
2023/01/04 05:47:36;;;;;;;4.20;1.30;;;;;;;8.87;100.00;101047.41;5046117;28;20447;-53
2023/01/04 05:50:03;;;;;;;0.70;0.40;;;;;;;8.81;100.00;101052.78;5044297;28;20471;-53
2023/01/04 05:52:29;;;;;;;0.40;0.30;;;;;;;8.85;100.00;101038.59;5038863;28;20473;-52
2023/01/04 05:54:56;;;;;;;0.73;0.73;;;;;;;8.93;100.00;101043.84;5039339;28;20451;-53
2023/01/04 05:57:22;;;;;;;0.40;0.30;;;;;;;8.96;100.00;101031.44;5045502;28;20545;-52
2023/01/04 05:59:49;;;;;;;0.40;0.37;;;;;;;8.99;100.00;101041.13;5032543;28;20490;-53
2023/01/04 06:02:18;;;;;;;0.73;0.73;;;;;;;8.86;100.00;101041.22;5045797;28;20455;-53
2023/01/04 06:04:45;;;;;;;1.70;0.20;;;;;;;8.90;100.00;101058.84;5044603;28;20461;-53
2023/01/04 06:07:14;;;;;;;0.97;0.57;;;;;;;8.84;100.00;101058.06;5038789;28;20450;-52
2023/01/04 06:09:41;;;;;;;11.20;1.10;;;;;;;8.84;100.00;101058.94;5039554;28;20474;-53
2023/01/04 06:12:08;;;;;;;0.67;0.40;;;;;;;8.99;100.00;101051.72;5045483;28;20525;-53
2023/01/04 06:14:35;;;;;;;0.83;0.60;;;;;;;9.10;100.00;101049.84;5044772;28;20450;-53
2023/01/04 06:17:01;;;;;;;0.90;0.40;;;;;;;9.08;100.00;101051.63;5038317;28;20895;-52
2023/01/04 06:19:28;;;;;;;0.70;0.60;;;;;;;9.02;100.00;101049.03;5039445;28;20529;-52
2023/01/04 06:21:55;;;;;;;1.83;0.70;;;;;;;8.88;100.00;101030.59;5045402;28;20464;-52
2023/01/04 06:24:21;;;;;;;0.50;0.50;;;;;;;9.07;100.00;101033.97;5044731;28;20447;-52
2023/01/04 06:26:48;;;;;;;0.50;0.40;;;;;;;9.02;100.00;101033.13;5038686;28;20553;-53
2023/01/04 06:29:14;;;;;;;5.00;1.03;;;;;;;8.89;100.00;101033.25;5039138;28;20487;-52
2023/01/04 06:31:41;;;;;;;2.73;0.80;;;;;;;8.96;100.00;101027.91;5049025;28;20455;-53
2023/01/04 06:34:10;;;;;;;1.53;0.93;;;;;;;9.03;100.00;101037.53;5049099;28;20823;-53
2023/01/04 06:36:37;;;;;;;0.60;0.60;;;;;;;9.00;100.00;101038.44;5049316;28;20448;-53
2023/01/04 06:39:05;;;;;;;0.80;0.50;;;;;;;9.08;100.00;101030.44;5049325;28;20466;-51
2023/01/04 06:41:31;;;;;;;1.00;0.50;;;;;;;9.03;100.00;101030.44;5029860;28;20451;-52
2023/01/04 06:43:58;;;;;;;0.67;0.60;;;;;;;8.99;100.00;101025.22;5042219;28;20487;-52
2023/01/04 06:46:25;;;;;;;0.87;0.77;;;;;;;9.03;100.00;101025.16;5048913;28;20451;-53
2023/01/04 06:48:52;;;;;;;0.40;0.40;;;;;;;9.15;100.00;101032.09;5048813;28;20524;-51
2023/01/04 06:51:20;;;;;;;0.70;0.70;;;;;;;9.02;100.00;101022.53;5042776;28;20451;-53
2023/01/04 06:53:46;;;;;;;0.50;0.40;;;;;;;9.13;100.00;101024.16;5042164;28;20455;-53
2023/01/04 06:56:13;;;;;;;0.37;0.30;;;;;;;9.01;100.00;101020.75;5048209;28;20946;-53
2023/01/04 06:58:39;;;;;;;0.40;0.30;;;;;;;9.12;100.00;101017.09;5047056;28;20614;-53
2023/01/04 07:01:06;;;;;;;0.40;0.30;;;;;;;9.14;100.00;101002.06;5044582;28;20447;-53
2023/01/04 07:03:33;;;;;;;0.53;0.40;;;;;;;9.12;100.00;101011.81;5042002;28;20451;-52
2023/01/04 07:06:04;;;;;;;1.80;0.53;;;;;;;8.97;100.00;101000.47;5046018;28;20539;-53
2023/01/04 07:08:33;;;;;;;1.67;0.50;;;;;;;8.96;100.00;100999.59;5048468;28;20534;-53
2023/01/04 07:11:00;;;;;;;0.40;0.20;;;;;;;8.96;100.00;100982.81;5045809;28;20482;-54
2023/01/04 07:13:27;;;;;;;0.40;0.33;;;;;;;8.98;100.00;100986.34;5041627;28;20457;-53
2023/01/04 07:15:53;;;;;;;1.13;0.67;;;;;;;9.07;100.00;100978.28;5044467;28;20481;-53
2023/01/04 07:18:20;;;;;;;2.17;0.90;;;;;;;9.00;100.00;100984.53;5048558;28;20491;-53
2023/01/04 07:20:47;;;;;;;0.47;0.33;;;;;;;9.11;100.00;100967.63;5045915;28;20625;-53
2023/01/04 07:23:13;;;;;;;2.70;0.37;;;;;;;9.13;100.00;100971.13;5041484;28;20548;-53
2023/01/04 07:25:40;;;;;;;0.30;0.20;;;;;;;9.24;100.00;100975.44;5044171;28;20803;-53
2023/01/04 07:28:08;;;;;;;0.40;0.27;;;;;;;9.15;100.00;100966.66;5048196;28;20454;-53
2023/01/04 07:30:34;;;;;;;2.60;0.50;;;;;;;9.09;100.00;100963.22;5046054;28;20470;-52
2023/01/04 07:33:01;;;;;;;0.80;0.50;;;;;;;9.12;100.00;100953.47;5023616;28;20872;-54
2023/01/04 07:35:27;;;;;;;0.40;0.40;;;;;;;9.00;100.00;100958.91;5046434;28;20486;-53
2023/01/04 07:37:54;;;;;;;0.30;0.20;;;;;;;9.06;100.00;100942.06;5041086;28;20482;-54
2023/01/04 07:40:25;;;;;;;0.50;0.40;;;;;;;9.22;100.00;100935.66;5042458;28;20965;-53
2023/01/04 07:42:57;;;;;;;0.33;0.23;;;;;;;9.08;100.00;100946.44;5047021;28;20960;-53
2023/01/04 07:45:24;;;;;;;0.60;0.40;;;;;;;9.02;100.00;100954.44;5034896;28;20510;-53
2023/01/04 07:47:50;;;;;;;2.20;0.40;;;;;;;9.15;100.00;100957.84;5048049;28;20448;-53
2023/01/04 07:50:16;;;;;;;0.50;0.50;;;;;;;9.14;100.00;100942.81;5047694;28;20470;-52
2023/01/04 07:52:43;;;;;;;0.50;0.43;;;;;;;9.01;100.00;100952.69;5040919;28;20447;-54
2023/01/04 07:55:09;;;;;;;0.40;0.30;;;;;;;9.12;100.00;100953.47;5041421;28;20510;-53
2023/01/04 07:57:36;;;;;;;1.40;0.53;;;;;;;9.14;100.00;100974.66;5047218;28;20491;-53
2023/01/04 08:00:04;;;;;;;1.00;0.90;;;;;;;9.09;100.00;100965.88;5034509;28;21015;-51
2023/01/04 08:02:30;;;;;;;0.60;0.50;;;;;;;9.20;100.00;100975.47;5047371;28;20452;-52
2023/01/04 08:04:57;;;;;;;0.60;0.47;;;;;;;9.12;100.00;100974.66;5047800;28;20442;-53
2023/01/04 08:07:23;;;;;;;0.70;0.60;;;;;;;9.27;100.00;100973.59;5041145;28;20474;-53
2023/01/04 08:09:50;;;;;;;0.43;0.33;;;;;;;9.17;100.00;100977.25;5040557;28;20476;-53
2023/01/04 08:12:16;;;;;;;0.60;0.40;;;;;;;9.23;100.00;100971.91;5047005;28;20825;-53
2023/01/04 08:14:43;;;;;;;0.80;0.50;;;;;;;9.19;100.00;100980.81;5047779;28;20455;-53
2023/01/04 08:17:09;;;;;;;0.50;0.30;;;;;;;9.34;100.00;100963.81;5041385;28;20569;-52
2023/01/04 08:19:35;;;;;;;0.40;0.40;;;;;;;9.58;100.00;100958.16;5040478;28;20839;-52
2023/01/04 08:22:02;;;;;;;0.43;0.30;;;;;;;9.33;100.00;100962.06;5046748;28;20447;-53
2023/01/04 08:24:28;;;;;;;0.50;0.40;;;;;;;9.32;100.00;100955.88;5047177;28;20455;-52
2023/01/04 08:26:55;;;;;;;0.40;0.40;;;;;;;9.50;100.00;100974.19;5041198;28;20950;-52
2023/01/04 08:29:21;;;;;;;0.70;0.50;;;;;;;9.41;100.00;100960.16;5040261;28;20475;-52
2023/01/04 08:31:48;;;;;;;0.40;0.30;;;;;;;9.32;100.00;100965.59;5046857;28;20451;-54
2023/01/04 08:34:14;;;;;;;0.87;0.67;;;;;;;9.27;100.00;100963.00;5047127;28;20446;-53
2023/01/04 08:36:49;;;;;;;0.40;0.30;;;;;;;9.36;100.00;100975.28;5038698;28;20447;-53
2023/01/04 08:39:16;;;;;;;0.77;0.40;;;;;;;9.46;100.00;100977.81;5042703;28;20493;-53
2023/01/04 08:41:52;;;;;;;0.50;0.47;;;;;;;9.27;100.00;100962.13;5043082;28;20533;-53
2023/01/04 08:44:28;;;;;;;0.40;0.30;;;;;;;9.34;100.00;100971.78;5040497;28;21014;-52
2023/01/04 08:46:54;;;;;;;0.40;0.30;;;;;;;9.26;100.00;100965.66;5041934;28;20802;-54
2023/01/04 08:49:22;;;;;;;1.40;0.90;;;;;;;9.40;100.00;100979.66;5047024;28;20467;-55
2023/01/04 08:51:49;;;;;;;0.60;0.40;;;;;;;9.48;100.00;100965.38;5045404;28;20447;-53
2023/01/04 08:54:16;;;;;;;0.60;0.40;;;;;;;9.58;100.00;100965.25;5048096;28;20452;-53
2023/01/04 08:56:42;;;;;;;0.83;0.53;;;;;;;9.53;100.00;100962.66;5045724;28;20569;-53
2023/01/04 08:59:11;;;;;;;0.30;0.20;;;;;;;9.54;100.00;100961.75;5034202;28;20515;-53
2023/01/04 09:01:38;;;;;;;0.60;0.40;;;;;;;9.64;100.00;100955.44;5046800;28;20505;-52
2023/01/04 09:04:05;;;;;;;0.40;0.30;;;;;;;9.56;100.00;100962.63;5027005;28;20461;-53
2023/01/04 09:06:32;;;;;;;0.40;0.30;;;;;;;9.72;100.00;100955.31;5039311;28;20463;-53
2023/01/04 09:08:59;;;;;;;0.53;0.40;;;;;;;9.62;100.00;100956.38;5019511;28;20468;-53
2023/01/04 09:11:25;;;;;;;0.30;0.23;;;;;;;9.62;100.00;100959.91;5046732;28;20447;-54
2023/01/04 09:13:59;;;;;;;5.83;0.73;;;;;;;9.61;100.00;100944.88;5039226;28;20476;-52
2023/01/04 09:16:33;;;;;;;2.03;0.50;;;;;;;9.57;100.00;100943.13;5039228;28;20948;-52
2023/01/04 09:19:00;;;;;;;3.03;0.87;;;;;;;9.57;100.00;100952.88;5043629;28;20529;-52
2023/01/04 09:21:27;;;;;;;0.60;0.50;;;;;;;9.53;100.00;100953.81;5045090;28;20451;-53
2023/01/04 09:23:55;;;;;;;0.83;0.80;;;;;;;9.52;100.00;100947.66;5032954;28;21024;-53
2023/01/04 09:26:23;;;;;;;0.40;0.30;;;;;;;9.70;100.00;100950.03;5046167;28;20916;-53
2023/01/04 09:28:52;;;;;;;0.50;0.20;;;;;;;9.75;100.00;100950.88;5042894;28;20899;-53
2023/01/04 09:31:21;;;;;;;0.40;0.30;;;;;;;9.63;100.00;100953.69;5039127;28;20555;-53
2023/01/04 09:33:48;;;;;;;0.73;0.67;;;;;;;9.60;100.00;100953.75;5041814;28;20451;-53
2023/01/04 09:36:34;;;;;;;0.50;0.40;;;;;;;9.69;100.00;100947.41;5032612;28;20448;-53
2023/01/04 09:39:00;;;;;;;0.40;0.20;;;;;;;9.99;100.00;100962.00;5045880;28;20495;-54
2023/01/04 09:41:29;;;;;;;0.37;0.30;;;;;;;9.95;100.00;100954.97;5039832;28;20447;-52
2023/01/04 09:44:35;;;;;;;0.30;0.20;;;;;;;9.96;100.00;100946.13;5038928;28;20491;-53
2023/01/04 09:47:32;;;;;;;0.40;0.40;;;;;;;9.77;100.00;100938.44;5038760;28;20452;-53
2023/01/04 09:50:04;;;;;;;0.40;0.30;;;;;;;9.85;100.00;100937.44;5041563;28;20463;-53
2023/01/04 09:52:49;;;;;;;0.80;0.60;;;;;;;9.90;100.00;100930.28;5045623;28;20964;-52
2023/01/04 09:55:20;;;;;;;0.43;0.30;;;;;;;9.79;100.00;100931.31;5045509;28;20998;-53
2023/01/04 09:58:23;;;;;;;0.87;0.50;;;;;;;9.76;100.00;100934.03;5032248;28;20487;-52
2023/01/04 10:00:56;;;;;;;0.50;0.40;;;;;;;9.85;100.00;100932.13;5019479;28;20463;-52
2023/01/04 10:03:27;;;;;;;0.53;0.43;;;;;;;10.00;100.00;100927.44;5045517;28;21000;-53
2023/01/04 10:05:55;;;;;;;1.63;0.80;;;;;;;9.93;100.00;100923.13;5039529;28;20443;-54
2023/01/04 10:08:22;;;;;;;0.50;0.50;;;;;;;10.04;100.00;100925.63;5045403;28;20457;-52
2023/01/04 10:11:15;;;;;;;0.30;0.20;;;;;;;10.09;100.00;100923.78;5040878;28;20467;-53
2023/01/04 10:14:01;;;;;;;0.40;0.30;;;;;;;10.00;100.00;100923.91;5038739;28;20948;-53
2023/01/04 10:16:48;;;;;;;0.40;0.30;;;;;;;9.91;100.00;100921.41;5038544;28;20811;-53
2023/01/04 10:20:03;;;;;;;0.30;0.20;;;;;;;9.96;100.00;100911.59;5038867;28;20533;-53
2023/01/04 10:23:09;;;;;;;0.37;0.30;;;;;;;9.96;100.00;100901.84;5038522;28;20505;-53
2023/01/04 10:25:53;;;;;;;1.23;1.13;;;;;;;9.94;100.00;100908.97;5041973;28;20451;-53
2023/01/04 10:28:47;;;;;;;0.40;0.40;;;;;;;10.01;100.00;100897.34;5046094;28;20454;-52
2023/01/04 10:31:25;;;;;;;2.30;1.13;;;;;;;10.06;100.00;100886.63;5045659;28;20447;-52
2023/01/04 10:34:12;;;;;;;0.60;0.50;;;;;;;10.05;100.00;100885.75;5045853;28;20933;-51
2023/01/04 10:36:46;;;;;;;0.40;0.30;;;;;;;10.22;100.00;100872.22;5025323;28;20832;-54
2023/01/04 10:39:15;;;;;;;0.47;0.37;;;;;;;10.02;100.00;100880.50;5030023;28;20501;-53
2023/01/04 10:41:55;;;;;;;6.10;0.60;;;;;;;10.16;100.00;100882.94;5042762;28;20451;-53
2023/01/04 10:44:37;;;;;;;0.57;0.57;;;;;;;10.15;100.00;100893.59;5045239;28;20809;-54
2023/01/04 10:47:25;;;;;;;0.43;0.40;;;;;;;10.10;100.00;100888.34;5045237;28;20452;-53
2023/01/04 10:49:56;;;;;;;0.70;0.40;;;;;;;10.15;100.00;100867.91;5042460;28;20969;-52
2023/01/04 10:52:41;;;;;;;0.50;0.50;;;;;;;10.11;100.00;100868.84;5043875;28;20459;-53
2023/01/04 10:55:40;;;;;;;1.73;1.63;;;;;;;10.16;100.00;100867.00;5044751;28;20447;-53
2023/01/04 10:58:46;;;;;;;0.53;0.30;;;;;;;10.23;100.00;100847.41;5038681;28;20490;-53
2023/01/04 11:01:22;;;;;;;1.80;1.70;;;;;;;10.18;100.00;100851.03;5041792;28;20954;-52
2023/01/04 11:04:23;;;;;;;0.60;0.60;;;;;;;10.18;100.00;100862.53;5038291;28;20454;-53
2023/01/04 11:06:56;;;;;;;0.80;0.47;;;;;;;10.30;100.00;100864.13;5030886;28;20487;-53
2023/01/04 11:09:27;;;;;;;0.50;0.37;;;;;;;10.28;100.00;100853.53;5022541;28;20796;-53
2023/01/04 11:11:55;;;;;;;0.53;0.53;;;;;;;10.24;100.00;100856.25;5045409;28;20521;-53
2023/01/04 11:14:24;;;;;;;0.77;0.77;;;;;;;10.34;100.00;100856.06;5043417;28;20486;-53
2023/01/04 11:16:56;;;;;;;0.50;0.50;;;;;;;10.42;100.00;100858.59;5038536;28;20450;-53
2023/01/04 11:19:23;;;;;;;0.40;0.30;;;;;;;10.38;100.00;100855.09;5042085;28;20499;-53
2023/01/04 11:21:57;;;;;;;3.77;0.53;;;;;;;10.33;100.00;100846.34;5048169;28;20458;-52
2023/01/04 11:24:28;;;;;;;0.50;0.30;;;;;;;10.46;100.00;100832.81;5048511;28;20446;-52
2023/01/04 11:27:05;;;;;;;1.43;0.80;;;;;;;10.32;100.00;100835.75;5044230;28;20450;-52
2023/01/04 11:29:47;;;;;;;0.40;0.40;;;;;;;10.38;100.00;100820.53;5037110;28;20543;-51
2023/01/04 11:32:49;;;;;;;0.40;0.30;;;;;;;10.35;100.00;100803.78;5047178;28;20454;-52
2023/01/04 11:35:36;;;;;;;0.40;0.30;;;;;;;10.33;100.00;100789.66;5036448;28;20929;-48
2023/01/04 11:38:21;;;;;;;16.63;0.50;;;;;;;10.49;100.00;100791.09;5034713;28;20557;-48
2023/01/04 11:40:55;;;;;;;4.10;0.57;;;;;;;10.49;100.00;100787.56;5048007;28;20471;-48
2023/01/04 11:43:23;;;;;;;0.50;0.40;;;;;;;10.33;100.00;100803.81;5044723;28;20447;-47
2023/01/04 11:46:03;;;;;;;2.83;0.40;;;;;;;10.50;100.00;100802.59;5041108;28;20454;-47
2023/01/04 11:48:33;;;;;;;0.70;0.40;;;;;;;10.45;100.00;100785.88;5042480;28;20446;-49
2023/01/04 11:51:01;;;;;;;0.30;0.20;;;;;;;10.55;100.00;100803.38;5048301;28;20447;-48
2023/01/04 11:53:32;;;;;;;0.40;0.23;;;;;;;10.47;100.00;100802.69;5047664;28;20455;-47
2023/01/04 11:56:10;;;;;;;0.50;0.30;;;;;;;10.39;100.00;100798.38;5047694;28;20493;-47
2023/01/04 11:58:37;;;;;;;0.57;0.30;;;;;;;10.49;100.00;100791.09;5047672;28;20497;-48
2023/01/04 12:01:04;;;;;;;0.40;0.30;;;;;;;10.53;100.00;100786.59;5043129;28;20451;-48
2023/01/04 12:03:38;;;;;;;0.40;0.30;;;;;;;10.71;100.00;100774.72;5041015;28;20844;-48
2023/01/04 12:06:29;;;;;;;0.60;0.43;;;;;;;10.73;100.00;100786.19;5044344;28;20443;-47
2023/01/04 12:08:56;;;;;;;0.63;0.50;;;;;;;10.60;100.00;100777.59;5047628;28;20464;-47
2023/01/04 12:11:33;;;;;;;0.83;0.40;;;;;;;10.62;100.00;100770.47;5047513;28;20457;-47
2023/01/04 12:14:01;;;;;;;0.53;0.53;;;;;;;10.72;100.00;100764.06;5046556;28;20929;-47
2023/01/04 12:16:50;;;;;;;1.57;0.60;;;;;;;10.72;100.00;100766.72;5047585;28;20451;-48
2023/01/04 12:19:18;;;;;;;1.20;0.70;;;;;;;10.75;100.00;100763.09;5045362;28;20490;-47
2023/01/04 12:21:48;;;;;;;2.20;0.50;;;;;;;10.71;100.00;100758.78;5040383;28;20451;-47
2023/01/04 12:24:23;;;;;;;0.40;0.40;;;;;;;10.61;100.00;100756.28;5030106;28;20452;-47
2023/01/04 12:26:51;;;;;;;0.50;0.30;;;;;;;10.60;100.00;100743.03;5040753;28;20453;-48
2023/01/04 12:29:23;;;;;;;1.67;0.53;;;;;;;10.52;100.00;100752.94;5040403;28;21029;-48
2023/01/04 12:32:05;;;;;;;1.20;0.70;;;;;;;10.65;100.00;100735.81;5046469;28;20509;-48
2023/01/04 12:34:33;;;;;;;0.50;0.30;;;;;;;10.48;100.00;100728.22;5049877;28;20467;-48